Penfield, New York
Current Conditions -  °F | °C
As of 5:54 AM on Monday 20 Oct 2014 (Local Time) from KROC Reporting Station
Overcast Overcast  
Wind Chill: 39°   Ceiling: 2700
Heat Index: 43°   Visibility: 10mi
Dew Point: 35°   Wind: 7mph
Humidity: 74%   Direction: 220°SW
Pressure: 29.97"   Gusts: NA
Location:  43.13°N, 77.48°W
Report Text: KROC 200954Z 22006KT 10SM BKN027 OVC090 06/02 A2997 RMK AO2 SLP154 T00610017
Loading
Personal Weather Stations






























Interactive Weather Map
Tropical Storm Tracking
New forecast layout! Learn more

10-Day Weather Forecast

Advertisements
Track Severe Weather on mobile